• Join FlightAware (Why Join?)
  • Login
  • US Flag 
12:01AM EST


 

Airport Tracker/Info


-or-


 

Live Flight TrackerFlight Track Log ✈ PDT4314 ✈ 19-Feb-2014 ✈ KBGM - KPHL

Flight Track Log - Related Links

Times and Time Zones

All times are in EST time to prevent confusion due to time zone crossing. See the PDT4314 flight status page for this flight to view local times or setup timezone preferences in your user account.

Time Position Orientation Groundspeed Altitude Reporting Facility
EST Latitude Longitude Course Direction KTS MPH feet Rate Location/Type
09:28PM 41.8033 -75.8476 180° South  Level Estimated
09:29PM 41.7357 -75.8257 154° Southeast  Level Estimated
09:30PM 41.6682 -75.8039 160° South  Level Estimated
09:31PM 41.6007 -75.7822 159° South  Level Estimated
09:32PM 41.5318 -75.7944 188° South  Level FlightAware Approximate
09:33PM 41.4616 -75.7744 153° Southeast  Level FlightAware Approximate
09:34PM 41.3965 -75.7423 161° South  Level FlightAware Approximate
09:35PM 41.3307 -75.7124 161° South  Level FlightAware Approximate
09:36PM 41.2649 -75.6826 162° South  Level FlightAware Approximate
09:37PM 41.1990 -75.6536 162° South  Level FlightAware Approximate
09:38PM 41.1330 -75.6247 162° South  Level FlightAware Approximate
09:39PM 41.0670 -75.5959 162° South  Level FlightAware Approximate
09:40PM 41.0010 -75.5671 162° South  Level FlightAware Approximate
09:41PM 40.9353 -75.5374 163° South  Level FlightAware Approximate
09:42PM 40.8688 -75.5107 163° South  Level FlightAware Approximate
09:43PM 40.8023 -75.4842 163° South  Level FlightAware Approximate
09:44PM 40.7358 -75.4576 163° South  Level FlightAware Approximate
09:45PM 40.6679 -75.4613 190° South  Level FlightAware Approximate
09:45PM 40.7833 -75.4667 190° South 240 276 6,900  Level Philadelphia TRACON
09:46PM 40.5995 -75.4771 190° South  Level FlightAware Approximate
09:47PM 40.5310 -75.4929 190° South  Level FlightAware Approximate
09:47PM 40.6833 -75.4667 180° South 231 266 5,800  Level Philadelphia TRACON
09:48PM 40.4623 -75.5063 187° South  Level FlightAware Approximate
09:48PM 40.6333 -75.4833 194° South 222 255 5,200  Level Philadelphia TRACON
09:49PM 40.3934 -75.5181 190° South  Level FlightAware Approximate
09:49PM 40.5833 -75.5000 194° South 219 252 5,000  Level Philadelphia TRACON
09:50PM 40.3249 -75.5334 190° South  Level FlightAware Approximate
09:50PM 40.5000 -75.5000 180° South 222 255 5,000  Level Philadelphia TRACON
09:51PM 40.2564 -75.5486 190° South  Level FlightAware Approximate
09:51PM 40.4500 -75.5167 194° South 224 258 5,000  Level Philadelphia TRACON
09:52PM 40.3833 -75.4667 150° Southeast 255 293 5,000  Level Philadelphia TRACON
09:53PM 40.3333 -75.4333 153° Southeast 249 287 5,000  Level Philadelphia TRACON
09:54PM 40.2667 -75.3833 150° Southeast 254 292 5,000  Level Philadelphia TRACON
09:55PM 40.2167 -75.3333 143° Southeast 256 295 5,000  Level Philadelphia TRACON
09:56PM 40.1500 -75.3000 159° South 262 302 5,000  Level Philadelphia TRACON
09:57PM 40.1000 -75.2333 134° Southeast 255 293 5,000  Level Philadelphia TRACON
09:58PM 40.0667 -75.1500 118° Southeast 254 292 5,000 -60 Level Philadelphia TRACON
09:59PM 40.0500 -75.0833 108° East 238 274 4,900 -540 Descending Philadelphia TRACON
10:00PM 40.0333 -74.9833 102° East 226 260 4,000 -420 Descending Philadelphia TRACON
10:01PM 40.0000 -74.9333 131° Southeast 229 264 4,000  Level Philadelphia TRACON
10:02PM 39.9500 -74.9667 207° Southwest 163 188 4,000 -240 Level Philadelphia TRACON
10:03PM 39.9333 -75.0167 247° West 161 185 3,600 -660 Descending Philadelphia TRACON
10:04PM 39.9167 -75.0667 247° West 141 162 2,700 -900 Descending Philadelphia TRACON
10:05PM 39.9000 -75.1167 247° West 153 176 1,800 -900 Descending Philadelphia TRACON
10:06PM 39.9000 -75.1500 270° West 116 133 1,000 -720 Descending Philadelphia TRACON
10:07PM 39.8833 -75.2000 247° West 109 125 400 -600 Descending Philadelphia TRACON
10:09PM 39.8667 -75.2333 252° West  Level FlightAware Approximate
10:16PM 39.8722 -75.2409 252° West  Level Estimated